Terminal Aerodrome Forecast
Issued by NWS

Home | Current Version | Previous Version | Text Only | Print | Product List | Glossary On
Versions: 1 2 3 4 5 6 7 8 9 10 11 12 13
096
FTUS44 KSJT 281725
TAFSOA
TAF
KSOA 281725Z 2818/2918 19008KT P6SM SCT250
     FM290000 16011KT P6SM BKN250
     FM290900 18011KT P6SM BKN015
     FM291700 25009KT P6SM SCT250=

USA.gov is the U.S. government's official web portal to all federal, state and local government web resources and services.